createdAt,value
2023-05-15T00:01:06.725Z,100815.00
2023-05-15T00:03:33.645Z,100799.00
2023-05-15T00:06:00.719Z,100808.00
2023-05-15T00:08:27.489Z,100797.00
2023-05-15T00:11:01.530Z,100805.00
2023-05-15T00:13:28.953Z,100786.00
2023-05-15T00:15:55.737Z,100790.00
2023-05-15T00:18:22.501Z,100785.00
2023-05-15T00:20:49.287Z,100777.00
2023-05-15T00:23:16.041Z,100783.00
2023-05-15T00:25:42.793Z,100777.00
2023-05-15T00:28:09.566Z,100768.00
2023-05-15T00:30:36.294Z,100771.00
2023-05-15T00:33:03.085Z,100770.00
2023-05-15T00:35:29.912Z,100771.00
2023-05-15T00:37:56.643Z,100755.00
2023-05-15T00:40:26.087Z,100761.00
2023-05-15T00:42:53.652Z,100758.00
2023-05-15T00:45:23.211Z,100747.00
2023-05-15T00:47:50.502Z,100742.00
2023-05-15T00:50:17.424Z,100750.00
2023-05-15T00:52:44.284Z,100739.00
2023-05-15T00:55:11.028Z,100731.00
2023-05-15T00:57:38.520Z,100736.00
2023-05-15T01:00:10.320Z,100738.00
2023-05-15T01:02:37.838Z,100732.00
2023-05-15T01:05:07.445Z,100725.00
2023-05-15T01:07:44.825Z,100716.00
2023-05-15T01:10:12.805Z,100723.00
2023-05-15T01:12:41.533Z,100731.00
2023-05-15T01:15:08.733Z,100716.00
2023-05-15T01:17:36.158Z,100715.00
2023-05-15T01:20:06.871Z,100705.00
2023-05-15T01:22:52.842Z,100705.00
2023-05-15T01:25:56.333Z,100711.00
2023-05-15T01:28:32.130Z,100721.00
2023-05-15T01:31:06.489Z,100715.00
2023-05-15T01:33:43.243Z,100715.00
2023-05-15T01:36:36.030Z,100715.00
2023-05-15T01:39:05.514Z,100716.00
2023-05-15T01:41:42.832Z,100723.00
2023-05-15T01:44:26.129Z,100731.00
2023-05-15T01:46:58.594Z,100722.00
2023-05-15T01:49:28.267Z,100713.00
2023-05-15T01:52:33.706Z,100700.00
2023-05-15T01:55:03.206Z,100692.00
2023-05-15T01:57:31.785Z,100707.00
2023-05-15T01:59:59.541Z,100703.00
2023-05-15T02:02:28.643Z,100696.00
2023-05-15T02:04:56.803Z,100690.00
2023-05-15T02:07:26.064Z,100696.00
2023-05-15T02:09:55.213Z,100688.00
2023-05-15T02:12:23.050Z,100689.00
2023-05-15T02:14:51.983Z,100691.00
2023-05-15T02:17:19.555Z,100686.00
2023-05-15T02:19:46.296Z,100675.00
2023-05-15T02:22:13.038Z,100672.00
2023-05-15T02:24:39.893Z,100669.00
2023-05-15T02:27:24.406Z,100680.00
2023-05-15T02:30:15.173Z,100682.00
2023-05-15T02:33:23.544Z,100679.00
2023-05-15T02:35:59.226Z,100682.00
2023-05-15T02:38:33.841Z,100675.00
2023-05-15T02:41:02.722Z,100664.00
2023-05-15T02:43:29.949Z,100664.00
2023-05-15T02:45:57.735Z,100663.00
2023-05-15T02:48:25.803Z,100666.00
2023-05-15T02:50:53.300Z,100658.00
2023-05-15T02:53:20.120Z,100663.00
2023-05-15T02:55:46.870Z,100656.00
2023-05-15T02:58:13.989Z,100652.00
2023-05-15T03:00:40.738Z,100649.00
2023-05-15T03:03:07.512Z,100653.00
2023-05-15T03:05:34.381Z,100641.00
2023-05-15T03:08:01.123Z,100647.00
2023-05-15T03:10:28.503Z,100642.00
2023-05-15T03:12:59.379Z,100637.00
2023-05-15T03:15:26.623Z,100633.00
2023-05-15T03:17:53.753Z,100634.00
2023-05-15T03:20:20.611Z,100627.00
2023-05-15T03:22:47.416Z,100636.00
2023-05-15T03:25:14.226Z,100622.00
2023-05-15T03:27:41.041Z,100631.00
2023-05-15T03:30:08.667Z,100623.00
2023-05-15T03:32:35.510Z,100612.00
2023-05-15T03:35:02.649Z,100623.00
2023-05-15T03:37:29.410Z,100618.00
2023-05-15T03:39:56.320Z,100617.00
2023-05-15T03:42:24.802Z,100617.00
2023-05-15T03:44:51.929Z,100614.00
2023-05-15T03:47:18.729Z,100609.00
2023-05-15T03:49:46.503Z,100615.00
2023-05-15T03:52:13.473Z,100609.00
2023-05-15T03:54:40.526Z,100619.00
2023-05-15T03:57:07.791Z,100611.00
2023-05-15T03:59:34.532Z,100619.00
2023-05-15T04:02:05.050Z,100613.00
2023-05-15T04:04:32.729Z,100621.00
2023-05-15T04:07:00.207Z,100624.00
2023-05-15T04:09:26.983Z,100617.00
2023-05-15T04:11:53.775Z,100613.00
2023-05-15T04:14:20.870Z,100609.00
2023-05-15T04:16:48.693Z,100605.00
2023-05-15T04:19:15.569Z,100603.00
2023-05-15T04:21:42.397Z,100600.00
2023-05-15T04:24:09.136Z,100604.00
2023-05-15T04:26:36.554Z,100604.00
2023-05-15T04:29:04.869Z,100599.00
2023-05-15T04:31:32.306Z,100612.00
2023-05-15T04:33:59.213Z,100606.00
2023-05-15T04:36:26.453Z,100607.00
2023-05-15T04:38:53.234Z,100608.00
2023-05-15T04:41:20.014Z,100612.00
2023-05-15T04:43:46.805Z,100608.00
2023-05-15T04:46:13.658Z,100605.00
2023-05-15T04:48:40.460Z,100602.00
2023-05-15T04:51:07.659Z,100605.00
2023-05-15T04:53:34.459Z,100603.00
2023-05-15T04:56:01.220Z,100606.00
2023-05-15T04:58:27.978Z,100599.00
2023-05-15T05:00:54.726Z,100591.00
2023-05-15T05:03:21.975Z,100592.00
2023-05-15T05:05:49.500Z,100590.00
2023-05-15T05:08:16.261Z,100588.00
2023-05-15T05:10:42.991Z,100583.00
2023-05-15T05:13:09.709Z,100577.00
2023-05-15T05:15:37.173Z,100586.00
2023-05-15T05:18:04.448Z,100576.00
2023-05-15T05:20:31.206Z,100575.00
2023-05-15T05:22:59.047Z,100563.00
2023-05-15T05:25:26.064Z,100568.00
2023-05-15T05:27:52.968Z,100572.00
2023-05-15T05:30:19.801Z,100559.00
2023-05-15T05:32:46.616Z,100563.00
2023-05-15T05:35:13.801Z,100559.00
2023-05-15T05:37:41.467Z,100557.00
2023-05-15T05:40:09.387Z,100566.00
2023-05-15T05:42:36.224Z,100560.00
2023-05-15T05:45:03.053Z,100553.00
2023-05-15T05:47:29.827Z,100560.00
2023-05-15T05:49:56.677Z,100561.00
2023-05-15T05:52:23.445Z,100560.00
2023-05-15T05:54:50.183Z,100566.00
2023-05-15T05:57:17.001Z,100558.00
2023-05-15T05:59:44.067Z,100553.00
2023-05-15T06:02:11.428Z,100554.00
2023-05-15T06:04:38.706Z,100550.00
2023-05-15T06:07:05.488Z,100546.00
2023-05-15T06:09:32.714Z,100544.00
2023-05-15T06:12:00.757Z,100547.00
2023-05-15T06:14:27.564Z,100544.00
2023-05-15T06:16:54.327Z,100536.00
2023-05-15T06:19:22.051Z,100538.00
2023-05-15T06:21:48.928Z,100534.00
2023-05-15T06:24:15.675Z,100533.00
2023-05-15T06:26:42.575Z,100527.00
2023-05-15T06:29:09.889Z,100523.00
2023-05-15T06:31:36.645Z,100522.00
2023-05-15T06:34:03.453Z,100521.00
2023-05-15T06:36:30.372Z,100519.00
2023-05-15T06:38:57.239Z,100520.00
2023-05-15T06:41:23.977Z,100510.00
2023-05-15T06:43:50.738Z,100521.00
2023-05-15T06:46:19.193Z,100524.00
2023-05-15T06:48:48.024Z,100520.00
2023-05-15T06:51:14.853Z,100514.00
2023-05-15T06:53:42.989Z,100520.00
2023-05-15T06:56:09.792Z,100521.00
2023-05-15T06:58:36.563Z,100512.00
2023-05-15T07:01:03.950Z,100513.00
2023-05-15T07:03:30.846Z,100508.00
2023-05-15T07:05:57.768Z,100511.00
2023-05-15T07:08:24.550Z,100506.00
2023-05-15T07:10:51.500Z,100500.00
2023-05-15T07:13:21.240Z,100505.00
2023-05-15T07:15:48.106Z,100509.00
2023-05-15T07:18:14.934Z,100511.00
2023-05-15T07:20:41.724Z,100511.00
2023-05-15T07:23:08.556Z,100510.00
2023-05-15T07:25:35.329Z,100493.00
2023-05-15T07:28:02.106Z,100491.00
2023-05-15T07:30:28.900Z,100496.00
2023-05-15T07:32:55.970Z,100496.00
2023-05-15T07:35:23.027Z,100485.00
2023-05-15T07:37:49.995Z,100489.00
2023-05-15T07:40:16.743Z,100487.00
2023-05-15T07:42:44.808Z,100488.00
2023-05-15T07:45:11.701Z,100488.00
2023-05-15T07:47:38.689Z,100485.00
2023-05-15T07:50:06.176Z,100482.00
2023-05-15T07:52:32.913Z,100483.00
2023-05-15T07:54:59.676Z,100484.00
2023-05-15T07:57:26.519Z,100474.00
2023-05-15T07:59:53.494Z,100467.00
2023-05-15T08:02:20.340Z,100469.00
2023-05-15T08:04:47.235Z,100484.00
2023-05-15T08:07:14.728Z,100464.00
2023-05-15T08:09:41.799Z,100457.00
2023-05-15T08:12:22.482Z,100461.00
2023-05-15T08:14:51.556Z,100456.00
2023-05-15T08:17:19.429Z,100460.00
2023-05-15T08:19:46.703Z,100454.00
2023-05-15T08:22:13.874Z,100448.00
2023-05-15T08:24:41.614Z,100451.00
2023-05-15T08:27:09.603Z,100449.00
2023-05-15T08:29:39.356Z,100455.00
2023-05-15T08:32:08.693Z,100447.00
2023-05-15T08:34:35.606Z,100449.00
2023-05-15T08:37:02.683Z,100443.00
2023-05-15T08:39:29.432Z,100438.00
2023-05-15T08:42:09.143Z,100432.00
2023-05-15T08:44:36.982Z,100431.00
2023-05-15T08:47:06.246Z,100427.00
2023-05-15T08:50:00.695Z,100428.00
2023-05-15T08:52:28.739Z,100430.00
2023-05-15T08:54:55.758Z,100427.00
2023-05-15T08:57:23.164Z,100425.00
2023-05-15T08:59:51.377Z,100413.00
2023-05-15T09:02:19.714Z,100420.00
2023-05-15T09:04:46.660Z,100415.00
2023-05-15T09:07:15.735Z,100416.00
2023-05-15T09:09:44.743Z,100408.00
2023-05-15T09:12:15.227Z,100412.00
2023-05-15T09:14:43.513Z,100400.00
2023-05-15T09:17:11.875Z,100401.00
2023-05-15T09:19:43.166Z,100407.00
2023-05-15T09:22:25.675Z,100396.00
2023-05-15T09:24:53.425Z,100393.00
2023-05-15T09:27:20.702Z,100391.00
2023-05-15T09:29:47.604Z,100390.00
2023-05-15T09:32:15.653Z,100391.00
2023-05-15T09:34:44.779Z,100395.00
2023-05-15T09:37:29.983Z,100394.00
2023-05-15T09:40:08.088Z,100396.00
2023-05-15T09:42:37.135Z,100395.00
2023-05-15T09:45:04.572Z,100392.00
2023-05-15T09:47:31.950Z,100395.00
2023-05-15T09:49:58.845Z,100399.00
2023-05-15T09:52:27.374Z,100400.00
2023-05-15T09:54:56.713Z,100402.00
2023-05-15T09:57:23.616Z,100399.00
2023-05-15T09:59:50.871Z,100393.00
2023-05-15T10:02:32.548Z,100404.00
2023-05-15T10:05:00.067Z,100393.00
2023-05-15T10:07:35.617Z,100395.00
2023-05-15T10:10:05.219Z,100406.00
2023-05-15T10:12:32.539Z,100393.00
2023-05-15T10:15:01.086Z,100392.00
2023-05-15T10:17:31.569Z,100393.00
2023-05-15T10:20:00.811Z,100393.00
2023-05-15T10:22:32.267Z,100396.00
2023-05-15T10:25:16.513Z,100397.00
2023-05-15T10:27:43.584Z,100399.00
2023-05-15T10:30:12.134Z,100402.00
2023-05-15T10:32:41.999Z,100385.00
2023-05-15T10:35:11.668Z,100397.00
2023-05-15T10:37:41.972Z,100397.00
2023-05-15T10:40:13.091Z,100384.00
2023-05-15T10:42:47.421Z,100375.00
2023-05-15T10:45:14.477Z,100376.00
2023-05-15T10:47:43.740Z,100366.00
2023-05-15T10:50:13.563Z,100368.00
2023-05-15T10:52:41.693Z,100370.00
2023-05-15T10:55:14.652Z,100355.00
2023-05-15T10:57:41.776Z,100359.00
2023-05-15T11:00:24.276Z,100346.00
2023-05-15T11:02:57.005Z,100346.00
2023-05-15T11:05:25.866Z,100341.00
2023-05-15T11:08:25.890Z,100336.00
2023-05-15T11:10:53.685Z,100343.00
2023-05-15T11:13:21.308Z,100350.00
2023-05-15T11:15:49.218Z,100344.00
2023-05-15T11:18:16.515Z,100347.00
2023-05-15T11:21:03.575Z,100330.00
2023-05-15T11:23:39.559Z,100325.00
2023-05-15T11:26:06.377Z,100335.00
2023-05-15T11:28:43.518Z,100321.00
2023-05-15T11:31:10.560Z,100325.00
2023-05-15T11:33:40.589Z,100317.00
2023-05-15T11:36:08.259Z,100321.00
2023-05-15T11:38:40.083Z,100316.00
2023-05-15T11:41:19.482Z,100324.00
2023-05-15T11:43:46.826Z,100310.00
2023-05-15T11:46:15.036Z,100311.00
2023-05-15T11:48:51.738Z,100309.00
2023-05-15T11:51:22.394Z,100299.00
2023-05-15T11:53:54.515Z,100293.00
2023-05-15T11:56:24.427Z,100292.00
2023-05-15T11:58:55.655Z,100291.00
2023-05-15T12:01:22.971Z,100295.00
2023-05-15T12:03:50.944Z,100286.00
2023-05-15T12:06:18.432Z,100290.00
2023-05-15T12:08:56.391Z,100280.00
2023-05-15T12:11:24.709Z,100285.00
2023-05-15T12:13:55.412Z,100282.00
2023-05-15T12:16:28.806Z,100280.00
2023-05-15T12:18:58.519Z,100273.00
2023-05-15T12:21:28.085Z,100264.00
2023-05-15T12:24:07.798Z,100274.00
2023-05-15T12:26:36.122Z,100270.00
2023-05-15T12:29:04.382Z,100267.00
2023-05-15T12:31:33.393Z,100261.00
2023-05-15T12:34:00.195Z,100273.00
2023-05-15T12:36:29.835Z,100264.00
2023-05-15T12:38:57.914Z,100262.00
2023-05-15T12:41:31.259Z,100263.00
2023-05-15T12:43:58.241Z,100260.00
2023-05-15T12:46:32.447Z,100259.00
2023-05-15T12:48:59.796Z,100255.00
2023-05-15T12:51:27.437Z,100251.00
2023-05-15T12:53:55.155Z,100242.00
2023-05-15T12:56:22.329Z,100243.00
2023-05-15T12:58:49.488Z,100239.00
2023-05-15T13:01:17.357Z,100232.00
2023-05-15T13:03:44.732Z,100241.00
2023-05-15T13:06:11.585Z,100235.00
2023-05-15T13:08:43.297Z,100230.00
2023-05-15T13:11:14.112Z,100237.00
2023-05-15T13:13:47.137Z,100236.00
2023-05-15T13:16:26.105Z,100241.00
2023-05-15T13:18:53.577Z,100238.00
2023-05-15T13:21:20.539Z,100230.00
2023-05-15T13:23:47.624Z,100229.00
2023-05-15T13:26:14.522Z,100223.00
2023-05-15T13:28:41.251Z,100229.00
2023-05-15T13:31:08.212Z,100230.00
2023-05-15T13:33:35.944Z,100263.00
2023-05-15T13:36:03.015Z,100265.00
2023-05-15T13:38:29.933Z,100263.00
2023-05-15T13:40:56.732Z,100273.00
2023-05-15T13:43:25.151Z,100280.00
2023-05-15T13:45:53.371Z,100271.00
2023-05-15T13:48:20.134Z,100292.00
2023-05-15T13:50:47.006Z,100284.00
2023-05-15T13:53:16.794Z,100294.00
2023-05-15T13:55:45.871Z,100302.00
2023-05-15T13:58:13.968Z,100335.00
2023-05-15T14:00:43.744Z,100316.00
2023-05-15T14:03:12.713Z,100320.00
2023-05-15T14:05:41.566Z,100333.00
2023-05-15T14:08:08.333Z,100344.00
2023-05-15T14:10:37.309Z,100349.00
2023-05-15T14:13:04.083Z,100348.00
2023-05-15T14:15:30.905Z,100342.00
2023-05-15T14:17:58.176Z,100349.00
2023-05-15T14:20:25.145Z,100333.00
2023-05-15T14:22:52.102Z,100331.00
2023-05-15T14:25:18.892Z,100336.00
2023-05-15T14:27:45.837Z,100330.00
2023-05-15T14:30:13.890Z,100324.00
2023-05-15T14:32:41.412Z,100308.00
2023-05-15T14:35:08.357Z,100331.00
2023-05-15T14:37:37.365Z,100316.00
2023-05-15T14:40:05.002Z,100315.00
2023-05-15T14:42:32.011Z,100307.00
2023-05-15T14:44:58.776Z,100306.00
2023-05-15T14:47:27.933Z,100303.00
2023-05-15T14:49:54.881Z,100296.00
2023-05-15T14:52:21.644Z,100293.00
2023-05-15T14:55:00.567Z,100296.00
2023-05-15T14:57:28.135Z,100297.00
2023-05-15T14:59:55.539Z,100293.00
2023-05-15T15:02:22.402Z,100284.00
2023-05-15T15:04:49.145Z,100290.00
2023-05-15T15:07:15.939Z,100292.00
2023-05-15T15:09:42.681Z,100290.00
2023-05-15T15:12:09.419Z,100287.00
2023-05-15T15:14:37.783Z,100289.00
2023-05-15T15:17:04.701Z,100295.00
2023-05-15T15:19:31.466Z,100285.00
2023-05-15T15:21:58.207Z,100285.00
2023-05-15T15:24:24.988Z,100282.00
2023-05-15T15:26:51.741Z,100274.00
2023-05-15T15:29:18.524Z,100272.00
2023-05-15T15:31:45.323Z,100277.00
2023-05-15T15:34:12.284Z,100275.00
2023-05-15T15:36:41.395Z,100269.00
2023-05-15T15:39:08.192Z,100274.00
2023-05-15T15:41:38.561Z,100272.00
2023-05-15T15:44:05.505Z,100268.00
2023-05-15T15:46:32.274Z,100271.00
2023-05-15T15:49:00.058Z,100260.00
2023-05-15T15:51:26.866Z,100263.00
2023-05-15T15:53:53.660Z,100255.00
2023-05-15T15:56:21.218Z,100255.00
2023-05-15T15:58:48.010Z,100242.00
2023-05-15T16:01:15.137Z,100247.00
2023-05-15T16:03:41.979Z,100242.00
2023-05-15T16:06:08.880Z,100250.00
2023-05-15T16:08:35.636Z,100251.00
2023-05-15T16:11:02.462Z,100249.00
2023-05-15T16:13:29.219Z,100244.00
2023-05-15T16:15:55.976Z,100251.00
2023-05-15T16:18:22.695Z,100255.00
2023-05-15T16:20:49.484Z,100251.00
2023-05-15T16:23:16.460Z,100254.00
2023-05-15T16:25:45.198Z,100248.00
2023-05-15T16:28:12.148Z,100256.00
2023-05-15T16:30:47.894Z,100255.00
2023-05-15T16:33:16.103Z,100256.00
2023-05-15T16:35:42.911Z,100259.00
2023-05-15T16:38:09.770Z,100260.00
2023-05-15T16:40:36.579Z,100260.00
2023-05-15T16:43:03.313Z,100264.00
2023-05-15T16:45:30.094Z,100268.00
2023-05-15T16:47:57.559Z,100263.00
2023-05-15T16:50:24.937Z,100263.00
2023-05-15T16:52:51.865Z,100269.00
2023-05-15T16:55:19.477Z,100273.00
2023-05-15T16:57:46.523Z,100274.00
2023-05-15T17:00:14.751Z,100279.00
2023-05-15T17:02:42.334Z,100277.00
2023-05-15T17:05:10.786Z,100263.00
2023-05-15T17:07:38.620Z,100274.00
2023-05-15T17:10:10.294Z,100267.00
2023-05-15T17:12:37.644Z,100267.00
2023-05-15T17:15:05.679Z,100267.00
2023-05-15T17:17:32.506Z,100280.00
2023-05-15T17:20:00.961Z,100271.00
2023-05-15T17:22:29.348Z,100281.00
2023-05-15T17:24:56.439Z,100282.00
2023-05-15T17:27:23.358Z,100281.00
2023-05-15T17:29:50.690Z,100285.00
2023-05-15T17:32:18.789Z,100288.00
2023-05-15T17:34:46.372Z,100284.00
2023-05-15T17:37:14.176Z,100275.00
2023-05-15T17:39:41.104Z,100293.00
2023-05-15T17:42:07.874Z,100287.00
2023-05-15T17:44:34.683Z,100284.00
2023-05-15T17:47:01.473Z,100281.00
2023-05-15T17:49:28.485Z,100282.00
2023-05-15T17:51:55.482Z,100281.00
2023-05-15T17:54:22.256Z,100288.00
2023-05-15T17:56:49.077Z,100285.00
2023-05-15T17:59:16.061Z,100290.00
2023-05-15T18:01:43.319Z,100290.00
2023-05-15T18:04:10.356Z,100288.00
2023-05-15T18:06:37.747Z,100298.00
2023-05-15T18:09:05.126Z,100292.00
2023-05-15T18:11:31.969Z,100296.00
2023-05-15T18:13:58.781Z,100287.00
2023-05-15T18:16:25.860Z,100296.00
2023-05-15T18:18:52.799Z,100299.00
2023-05-15T18:21:19.871Z,100292.00
2023-05-15T18:23:46.780Z,100297.00
2023-05-15T18:26:13.534Z,100301.00
2023-05-15T18:28:40.386Z,100301.00
2023-05-15T18:31:07.249Z,100302.00
2023-05-15T18:33:34.352Z,100310.00
2023-05-15T18:36:01.228Z,100305.00
2023-05-15T18:38:28.377Z,100303.00
2023-05-15T18:40:55.106Z,100303.00
2023-05-15T18:43:21.838Z,100303.00
2023-05-15T18:45:48.590Z,100293.00
2023-05-15T18:48:15.516Z,100296.00
2023-05-15T18:50:42.366Z,100300.00
2023-05-15T18:53:09.131Z,100296.00
2023-05-15T18:55:35.904Z,100296.00
2023-05-15T18:58:02.668Z,100293.00
2023-05-15T19:00:38.050Z,100304.00
2023-05-15T19:03:06.444Z,100295.00
2023-05-15T19:05:34.132Z,100300.00
2023-05-15T19:08:01.696Z,100296.00
2023-05-15T19:10:30.993Z,100306.00
2023-05-15T19:13:00.848Z,100310.00
2023-05-15T19:15:28.066Z,100305.00
2023-05-15T19:17:54.833Z,100309.00
2023-05-15T19:20:26.068Z,100311.00
2023-05-15T19:22:53.502Z,100309.00
2023-05-15T19:25:20.312Z,100312.00
2023-05-15T19:27:50.192Z,100319.00
2023-05-15T19:30:19.838Z,100343.00
2023-05-15T19:32:46.558Z,100341.00
2023-05-15T19:35:13.964Z,100342.00
2023-05-15T19:37:40.739Z,100344.00
2023-05-15T19:40:12.780Z,100344.00
2023-05-15T19:42:39.586Z,100348.00
2023-05-15T19:45:10.084Z,100347.00
2023-05-15T19:47:38.296Z,100338.00
2023-05-15T19:50:06.339Z,100353.00
2023-05-15T19:52:33.195Z,100349.00
2023-05-15T19:55:02.191Z,100356.00
2023-05-15T19:57:28.978Z,100352.00
2023-05-15T19:59:56.081Z,100352.00
2023-05-15T20:02:23.185Z,100360.00
2023-05-15T20:04:53.134Z,100352.00
2023-05-15T20:07:20.165Z,100358.00
2023-05-15T20:09:47.079Z,100366.00
2023-05-15T20:12:13.823Z,100369.00
2023-05-15T20:14:41.936Z,100360.00
2023-05-15T20:17:08.685Z,100374.00
2023-05-15T20:19:35.502Z,100358.00
2023-05-15T20:22:02.306Z,100367.00
2023-05-15T20:24:30.344Z,100353.00
2023-05-15T20:26:57.894Z,100365.00
2023-05-15T20:29:28.215Z,100371.00
2023-05-15T20:31:57.814Z,100373.00
2023-05-15T20:34:24.574Z,100374.00
2023-05-15T20:36:52.767Z,100368.00
2023-05-15T20:39:20.532Z,100372.00
2023-05-15T20:41:50.719Z,100379.00
2023-05-15T20:44:17.802Z,100377.00
2023-05-15T20:46:47.045Z,100376.00
2023-05-15T20:49:16.618Z,100373.00
2023-05-15T20:51:44.504Z,100372.00
2023-05-15T20:54:17.207Z,100373.00
2023-05-15T20:56:44.454Z,100372.00
2023-05-15T20:59:11.191Z,100375.00
2023-05-15T21:01:38.094Z,100372.00
2023-05-15T21:04:07.936Z,100367.00
2023-05-15T21:06:36.147Z,100375.00
2023-05-15T21:09:02.920Z,100369.00
2023-05-15T21:11:29.707Z,100371.00
2023-05-15T21:13:58.994Z,100361.00
2023-05-15T21:16:25.856Z,100374.00
2023-05-15T21:18:55.256Z,100368.00
2023-05-15T21:21:22.041Z,100372.00
2023-05-15T21:23:49.272Z,100366.00
2023-05-15T21:26:16.665Z,100375.00
2023-05-15T21:28:43.414Z,100368.00
2023-05-15T21:31:14.495Z,100362.00
2023-05-15T21:33:41.580Z,100368.00
2023-05-15T21:36:08.564Z,100366.00
2023-05-15T21:38:35.305Z,100374.00
2023-05-15T21:41:02.187Z,100376.00
2023-05-15T21:43:28.943Z,100380.00
2023-05-15T21:45:56.612Z,100384.00
2023-05-15T21:48:23.572Z,100386.00
2023-05-15T21:50:50.724Z,100390.00
2023-05-15T21:53:17.500Z,100375.00
2023-05-15T21:55:45.462Z,100384.00
2023-05-15T21:58:12.229Z,100392.00
2023-05-15T22:00:40.332Z,100384.00
2023-05-15T22:03:07.392Z,100392.00
2023-05-15T22:05:34.260Z,100385.00
2023-05-15T22:08:01.161Z,100386.00
2023-05-15T22:10:28.205Z,100393.00
2023-05-15T22:12:55.122Z,100399.00
2023-05-15T22:15:21.957Z,100386.00
2023-05-15T22:17:48.818Z,100393.00
2023-05-15T22:20:18.887Z,100399.00
2023-05-15T22:22:46.060Z,100398.00
2023-05-15T22:25:12.977Z,100398.00
2023-05-15T22:27:41.134Z,100387.00
2023-05-15T22:30:08.777Z,100396.00
2023-05-15T22:32:35.860Z,100400.00
2023-05-15T22:35:03.563Z,100402.00
2023-05-15T22:37:31.250Z,100406.00
2023-05-15T22:39:57.969Z,100396.00
2023-05-15T22:42:24.852Z,100402.00
2023-05-15T22:44:51.727Z,100395.00
2023-05-15T22:47:18.558Z,100401.00
2023-05-15T22:49:45.382Z,100404.00
2023-05-15T22:52:13.679Z,100413.00
2023-05-15T22:54:40.971Z,100422.00
2023-05-15T22:57:08.709Z,100430.00
2023-05-15T22:59:35.830Z,100425.00
2023-05-15T23:02:03.908Z,100424.00
2023-05-15T23:04:30.716Z,100431.00
2023-05-15T23:06:57.709Z,100428.00
2023-05-15T23:09:24.436Z,100441.00
2023-05-15T23:11:51.652Z,100429.00
2023-05-15T23:14:18.418Z,100425.00
2023-05-15T23:16:45.228Z,100417.00
2023-05-15T23:19:12.010Z,100438.00
2023-05-15T23:21:38.945Z,100426.00
2023-05-15T23:24:06.167Z,100430.00
2023-05-15T23:26:32.979Z,100430.00
2023-05-15T23:28:59.760Z,100444.00
2023-05-15T23:31:26.602Z,100431.00
2023-05-15T23:33:53.469Z,100444.00
2023-05-15T23:36:20.498Z,100436.00
2023-05-15T23:38:47.283Z,100431.00
2023-05-15T23:41:14.036Z,100427.00
2023-05-15T23:43:41.428Z,100430.00
2023-05-15T23:46:08.282Z,100428.00
2023-05-15T23:48:35.091Z,100444.00
2023-05-15T23:51:01.888Z,100440.00
2023-05-15T23:53:28.636Z,100435.00
2023-05-15T23:55:55.400Z,100439.00
2023-05-15T23:58:22.244Z,100434.00
